Latest Coastal Weather Observations for Rundle Island

IDQ60701

Issued at 7:51 am EST Wednesday 29 July 2015 (issued every 10 minutes, with the page automatically refreshed every 10 minutes)

About coastal observations | Map of coastal stations | Coastal observations for QLD | Marine services | Other Formats
Station Details ID: 039322 Name: RUNDLE ISLAND Lat: -23.53 Lon: 151.28 Height: 19.8 m
Data from the previous 72 hours. | See also: Recent months at Rundle Island
Date/Time
EST
Temp

°C
Wind Pressure Rain
since 9am
mm
Weather Cloud Vis
km
Sea
Height
m
Swell
Dir
 
Speed
knots
Gust
knots
hPa Trend Height
m
Period
s
Dir
29/07:30am 17.2 SSE 18 21 1028.0 - - - - - - - - -
29/07:00am 17.2 SSE 19 25 1027.7 - - - - - - - - -
29/06:30am 16.9 SSE 19 21 1027.5 - - - - - - - - -
29/06:00am 17.1 S 19 21 1027.3 - - - - - - - - -
29/05:30am 17.2 S 18 19 1027.1 - - - - - - - - -
29/05:00am 17.7 SSE 20 22 1027.0 - - - - - - - - -
29/04:30am 17.6 SSE 21 25 1026.8 - - - - - - - - -
29/04:00am 17.6 SSE 21 24 1026.8 - - - - - - - - -
29/03:30am 17.9 SSE 21 24 1026.8 - - - - - - - - -
29/03:00am 18.1 SSE 22 26 1026.9 - - - - - - - - -
29/02:30am 18.2 SSE 22 26 1026.9 - - - - - - - - -
29/02:00am 18.5 SSE 21 25 1026.8 - - - - - - - - -
29/01:30am 18.6 SSE 20 23 1026.9 - - - - - - - - -
29/01:00am 19.2 SE 23 27 1027.1 - - - - - - - - -
29/12:30am 19.2 SE 24 28 1027.1 - - - - - - - - -
29/12:00am 19.3 SE 25 29 1027.1 - - - - - - - - -
 
Date/Time
EST
Temp

°C
Wind Pressure Rain
since 9am
mm
Weather Cloud Vis
km
Sea
Height
m
Swell
Dir
 
Speed
knots
Gust
knots
hPa Trend Height
m
Period
s
Dir
28/11:30pm 19.3 SE 24 27 1027.2 - - - - - - - - -
28/11:00pm 19.3 SE 25 29 1027.2 - - - - - - - - -
28/10:30pm 19.4 SE 24 28 1027.5 - - - - - - - - -
28/10:00pm 19.4 SE 23 27 1027.5 - - - - - - - - -
28/09:30pm 19.6 SE 24 29 1027.4 - - - - - - - - -
28/09:00pm 19.6 SE 25 28 1027.4 - - - - - - - - -
28/08:30pm 19.6 SE 24 28 1027.1 - - - - - - - - -
28/08:00pm 19.6 SE 24 28 1027.0 - - - - - - - - -
28/07:30pm 19.7 SE 24 26 1026.8 - - - - - - - - -
28/07:00pm 19.7 SE 22 26 1026.5 - - - - - - - - -
28/06:30pm 19.7 SE 24 27 1026.3 - - - - - - - - -
28/06:00pm 19.7 SE 23 25 1025.8 - - - - - - - - -
28/05:30pm 19.8 SE 22 25 1025.6 - - - - - - - - -
28/05:00pm 19.8 SE 23 27 1025.2 - - - - - - - - -
28/04:30pm 19.8 SE 24 26 1024.9 - - - - - - - - -
28/04:00pm 19.9 SE 21 24 1024.7 - - - - - - - - -
28/03:30pm 20.0 SE 20 23 1024.6 - - - - - - - - -
28/03:00pm 20.2 SSE 15 17 1024.7 - - - - - - - - -
28/02:30pm 19.7 SSE 13 16 1024.9 - - - - - - - - -
28/02:00pm 19.4 SSE 14 16 1024.9 - - - - - - - - -
28/01:30pm 18.7 SSE 15 16 1025.1 - - - - - - - - -
28/01:00pm 18.3 SSE 13 16 1025.5 - - - - - - - - -
28/12:30pm 18.4 S 14 17 1025.9 - - - - - - - - -
28/12:00pm 17.4 S 14 17 1026.4 - - - - - - - - -
28/11:30am 17.3 S 16 19 1026.8 - - - - - - - - -
28/11:00am 17.3 S 17 20 1027.0 - - - - - - - - -
28/10:30am 17.1 S 17 19 1027.4 - - - - - - - - -
28/10:00am 16.6 S 17 21 1027.2 - - - - - - - - -
28/09:30am 15.7 S 17 19 1027.3 - - - - - - - - -
28/09:00am 15.0 SSW 17 20 1027.3 - - - - - - - - -
28/08:30am 14.7 SSW 17 19 1027.1 - - - - - - - - -
28/08:00am 14.5 SSW 17 21 1026.8 - - - - - - - - -
28/07:30am 14.5 SSW 18 21 1026.6 - - - - - - - - -
28/07:00am 14.8 SSW 16 18 1026.1 - - - - - - - - -
28/06:30am 14.9 SSW 17 19 1026.0 - - - - - - - - -
28/06:00am 15.2 SSW 18 20 1025.6 - - - - - - - - -
28/05:30am 15.3 SSW 18 21 1025.4 - - - - - - - - -
28/05:00am 15.6 SSW 19 21 1025.0 - - - - - - - - -
28/04:30am 16.1 SSW 17 20 1024.6 - - - - - - - - -
28/04:00am 16.1 SSW 16 19 1024.4 - - - - - - - - -
28/03:30am 16.5 SSW 17 19 1024.5 - - - - - - - - -
28/03:00am 16.9 SSW 17 19 1024.3 - - - - - - - - -
28/02:30am 17.2 SSW 18 22 1024.3 - - - - - - - - -
28/02:00am 17.6 S 17 20 1024.4 - - - - - - - - -
28/01:30am 18.1 S 17 19 1024.7 - - - - - - - - -
28/01:00am 18.6 S 17 20 1024.9 - - - - - - - - -
28/12:30am 19.1 S 17 20 1024.7 - - - - - - - - -
28/12:00am 19.6 SSW 17 20 1024.7 - - - - - - - - -
 
Date/Time
EST
Temp

°C
Wind Pressure Rain
since 9am
mm
Weather Cloud Vis
km
Sea
Height
m
Swell
Dir
 
Speed
knots
Gust
knots
hPa Trend Height
m
Period
s
Dir
27/11:30pm 19.9 SSW 15 18 1024.6 - - - - - - - - -
27/11:00pm 20.1 SSW 13 15 1024.8 - - - - - - - - -
27/10:30pm 20.2 S 11 13 1024.9 - - - - - - - - -
27/10:00pm 20.1 SSW 8 9 1024.8 - - - - - - - - -
27/09:30pm 20.9 S 10 11 1024.7 - - - - - - - - -
27/09:00pm 21.1 SSE 9 11 1024.5 - - - - - - - - -
27/08:30pm 21.2 SSE 9 10 1024.3 - - - - - - - - -
27/08:00pm 21.3 SE 7 8 1024.1 - - - - - - - - -
27/07:30pm 21.3 SE 7 7 1023.9 - - - - - - - - -
27/07:00pm 21.3 SE 7 8 1023.4 - - - - - - - - -
27/06:30pm 21.1 ESE 8 9 1022.8 - - - - - - - - -
27/06:00pm 21.1 ESE 8 9 1022.3 - - - - - - - - -
27/05:30pm 21.1 ESE 9 10 1021.8 - - - - - - - - -
27/05:00pm 21.2 E 11 12 1021.3 - - - - - - - - -
27/04:30pm 21.3 E 10 11 1020.8 - - - - - - - - -
27/04:00pm 21.4 E 10 11 1020.5 - - - - - - - - -
27/03:30pm 21.6 E 12 13 1020.2 - - - - - - - - -
27/03:00pm 21.6 ENE 11 13 1019.9 - - - - - - - - -
27/02:30pm 21.5 ENE 11 12 1020.1 - - - - - - - - -
27/02:00pm 21.6 E 10 11 1020.4 - - - - - - - - -
27/01:30pm 21.6 E 10 11 1020.6 - - - - - - - - -
27/01:00pm 21.8 ESE 9 10 1021.3 - - - - - - - - -
27/12:30pm 21.8 SE 8 9 1021.8 - - - - - - - - -
27/12:00pm 21.6 SSE 10 11 1022.3 - - - - - - - - -
27/11:30am 21.2 SSE 12 13 1022.8 - - - - - - - - -
27/11:00am 20.9 SSE 11 12 1023.2 - - - - - - - - -
27/10:30am 20.7 SSE 10 11 1023.6 - - - - - - - - -
27/10:00am 20.7 SSE 8 11 1023.9 - - - - - - - - -
27/09:30am 21.2 S 7 8 1024.2 - - - - - - - - -
27/09:00am 20.3 S 5 6 1024.1 - - - - - - - - -
27/08:30am 19.9 SSW 4 5 1024.1 - - - - - - - - -
27/08:00am 19.7 SW 4 4 1023.9 - - - - - - - - -
27/07:30am 19.9 WSW 2 3 1023.6 - - - - - - - - -
27/07:00am 19.9 WNW 3 4 1023.4 - - - - - - - - -
27/06:30am 19.8 WNW 5 5 1022.9 - - - - - - - - -
27/06:00am 19.7 W 3 4 1022.4 - - - - - - - - -
27/05:30am 19.9 NW 2 4 1022.1 - - - - - - - - -
27/05:00am 19.9 CALM 0 0 1021.8 - - - - - - - - -
27/04:30am 19.9 CALM 0 0 1021.7 - - - - - - - - -
27/04:00am 19.9 NW 3 3 1021.6 - - - - - - - - -
27/03:30am 19.9 WSW 2 5 1021.7 - - - - - - - - -
27/03:00am 20.3 WNW 5 7 1021.9 - - - - - - - - -
27/02:30am 20.5 WNW 8 12 1022.0 - - - - - - - - -
27/02:00am 20.6 NW 8 9 1021.8 - - - - - - - - -
27/01:30am 20.6 WNW 7 8 1021.9 - - - - - - - - -
27/01:00am 20.5 NNW 9 10 1021.5 - - - - - - - - -
27/12:30am 20.6 NNW 9 10 1021.4 - - - - - - - - -
27/12:00am 20.6 NNW 11 12 1021.3 - - - - - - - - -
 
Date/Time
EST
Temp

°C
Wind Pressure Rain
since 9am
mm
Weather Cloud Vis
km
Sea
Height
m
Swell
Dir
 
Speed
knots
Gust
knots
hPa Trend Height
m
Period
s
Dir
26/11:30pm 20.6 NNW 9 10 1021.2 - - - - - - - - -
26/11:00pm 20.7 NNW 8 10 1021.3 - - - - - - - - -
26/10:30pm 20.8 NNW 9 11 1021.4 - - - - - - - - -
26/10:00pm 20.8 NNW 10 11 1021.3 - - - - - - - - -
26/09:30pm 20.9 N 9 10 1021.2 - - - - - - - - -
26/09:00pm 20.9 N 8 9 1021.2 - - - - - - - - -
26/08:30pm 20.9 N 8 8 1021.0 - - - - - - - - -
26/08:00pm 20.9 N 7 7 1020.7 - - - - - - - - -
26/07:30pm 21.0 N 7 7 1020.5 - - - - - - - - -
26/07:00pm 21.1 N 10 12 1020.0 - - - - - - - - -
26/06:30pm 21.1 N 10 11 1019.6 - - - - - - - - -
26/06:00pm 21.1 N 9 10 1019.1 - - - - - - - - -
26/05:30pm 21.0 N 9 10 1018.9 - - - - - - - - -
26/05:00pm 21.1 N 7 8 1018.7 - - - - - - - - -
26/04:30pm 21.2 N 7 8 1018.5 - - - - - - - - -
26/04:00pm 21.1 N 8 9 1018.3 - - - - - - - - -
26/03:30pm 21.1 N 7 8 1018.2 - - - - - - - - -
26/03:00pm 21.1 N 9 10 1018.0 - - - - - - - - -
26/02:30pm 20.9 N 10 11 1018.2 - - - - - - - - -
26/02:00pm 20.6 N 9 10 1018.4 - - - - - - - - -
26/01:30pm 20.4 N 9 11 1018.8 - - - - - - - - -
26/01:00pm 19.8 NNW 7 8 1019.3 - - - - - - - - -
26/12:30pm 19.5 NNW 5 6 1019.8 - - - - - - - - -
26/12:00pm 19.7 NW 5 6 1020.5 - - - - - - - - -
26/11:30am 19.4 NNW 6 8 1021.0 - - - - - - - - -
26/11:00am 19.1 NNW 7 8 1021.6 - - - - - - - - -
26/10:30am 18.6 NNW 7 8 1021.8 - - - - - - - - -
26/10:00am 18.8 NNW 6 8 1022.0 - - - - - - - - -
26/09:30am 18.6 NNW 5 6 1022.2 - - - - - - - - -
26/09:00am 19.0 NW 4 5 1022.5 - - - - - - - - -
26/08:30am 18.9 NW 4 5 1022.4 - - - - - - - - -
26/08:00am 19.0 WNW 5 5 1022.1 - - - - - - - - -

Other Formats:

Comma delimited format used in spreadsheet applications
http://www.bom.gov.au/fwo/IDQ60701/IDQ60701.94378.axf

JavaScript Object Notation format (JSON) in row-major order
http://www.bom.gov.au/fwo/IDQ60701/IDQ60701.94378.json